Time;durP1;ratioP1;P1;durP2;ratioP2;P2;SDS_P1;SDS_P2;PMS_P1;PMS_P2;Temp;Humidity;BMP_temperature;BMP_pressure;BME280_temperature;BME280_humidity;BME280_pressure;Samples;Min_cycle;Max_cycle;Signal;HPM_P1;HPM_P2
2023/11/19 00:02:15;;;;;;;35.92;5.35;;;;;;;-146.27;91.08;30693.06;5099751;28;20031;-70
2023/11/19 00:04:40;;;;;;;39.80;5.43;;;;;;;-146.27;91.28;30637.53;5093778;28;20028;-70
2023/11/19 00:07:07;;;;;;;42.85;5.10;;;;;;;-146.27;90.61;30697.03;5100013;28;20020;-72
2023/11/19 00:09:37;;;;;;;36.15;4.75;;;;;;;-146.27;91.26;30683.16;5099430;28;20028;-70
2023/11/19 00:12:04;;;;;;;40.67;5.40;;;;;;;-146.27;91.16;30756.50;5095431;28;22001;-71
2023/11/19 00:14:30;;;;;;;39.05;5.38;;;;;;;-146.27;90.28;30645.47;5096349;28;20028;-71
2023/11/19 00:16:55;;;;;;;39.10;6.97;;;;;;;-146.27;91.53;30712.88;5093526;28;20044;-71
2023/11/19 00:19:21;;;;;;;42.60;4.70;;;;;;;-146.27;90.93;30756.50;5095192;28;20036;-71
2023/11/19 00:21:46;;;;;;;41.00;5.20;;;;;;;-146.27;91.68;30780.31;5085444;28;20046;-72
2023/11/19 00:24:12;;;;;;;35.80;6.13;;;;;;;-146.27;90.27;30704.97;5101282;28;20031;-71
2023/11/19 00:26:38;;;;;;;37.00;6.07;;;;;;;-146.27;92.10;30794.19;5097467;28;20047;-71
2023/11/19 00:29:03;;;;;;;35.72;4.93;;;;;;;-146.27;90.97;30689.09;5101800;28;20654;-71
2023/11/19 00:31:29;;;;;;;45.42;6.95;;;;;;;-146.27;91.10;30708.91;5094292;28;20034;-71
2023/11/19 00:33:54;;;;;;;42.05;5.90;;;;;;;-146.27;91.10;30768.41;5093401;28;20031;-71
2023/11/19 00:36:20;;;;;;;40.17;5.28;;;;;;;-146.27;92.07;30821.94;5095141;28;20533;-71
2023/11/19 00:38:46;;;;;;;35.45;5.60;;;;;;;-146.27;91.48;30851.69;5099066;28;20023;-71
2023/11/19 00:41:11;;;;;;;48.95;5.55;;;;;;;-146.27;90.86;30782.28;5093666;28;20437;-71
2023/11/19 00:43:36;;;;;;;40.20;5.93;;;;;;;-146.27;90.67;30800.13;5104345;28;20551;-70
2023/11/19 00:46:03;;;;;;;39.53;4.75;;;;;;;-146.27;90.58;30810.03;5099488;28;20460;-71
2023/11/19 00:48:28;;;;;;;40.45;5.97;;;;;;;-146.27;90.40;30776.34;5093991;28;20105;-70
2023/11/19 00:50:54;;;;;;;53.63;7.70;;;;;;;-146.27;90.63;30808.06;5102406;28;20035;-71
2023/11/19 00:53:19;;;;;;;39.20;5.85;;;;;;;-146.27;90.49;30869.53;5096000;28;20042;-70
2023/11/19 00:55:45;;;;;;;52.42;6.30;;;;;;;-146.27;90.25;30806.09;5092101;28;20035;-71
2023/11/19 00:58:10;;;;;;;32.63;5.47;;;;;;;-146.27;90.45;30895.31;5091925;28;20028;-71
2023/11/19 01:00:36;;;;;;;45.15;7.40;;;;;;;-146.27;90.15;30817.97;5099812;28;20030;-71
2023/11/19 01:03:01;;;;;;;42.78;7.20;;;;;;;-146.27;89.26;30685.13;5090347;28;20027;-71
2023/11/19 01:05:28;;;;;;;43.42;4.65;;;;;;;-146.27;89.29;30821.94;5097802;28;20527;-71
2023/11/19 01:07:54;;;;;;;38.97;5.70;;;;;;;-146.27;90.36;30883.41;5099966;28;20096;-71
2023/11/19 01:10:20;;;;;;;38.25;4.10;;;;;;;-146.27;89.65;30827.88;5094486;28;20036;-71
2023/11/19 01:12:46;;;;;;;46.15;6.13;;;;;;;-146.27;89.31;30778.31;5097815;28;20142;-71
2023/11/19 01:15:13;;;;;;;31.35;4.55;;;;;;;-146.27;89.93;30938.94;5097631;28;20028;-69
2023/11/19 01:17:38;;;;;;;39.03;4.85;;;;;;;-146.27;89.37;30883.41;5101154;28;20044;-70
2023/11/19 01:20:06;;;;;;;45.65;5.50;;;;;;;-146.27;88.04;30778.31;5092556;28;20054;-70
2023/11/19 01:22:31;;;;;;;37.78;4.78;;;;;;;-146.27;88.23;30887.38;5104024;28;20057;-70
2023/11/19 01:24:58;;;;;;;40.28;4.78;;;;;;;-146.27;87.35;30740.66;5097988;28;20020;-70
2023/11/19 01:27:23;;;;;;;47.60;7.18;;;;;;;-146.27;88.16;30863.59;5102735;28;20070;-71
2023/11/19 01:29:49;;;;;;;41.15;6.15;;;;;;;-146.27;88.02;30931.00;5092047;28;20039;-71
2023/11/19 01:32:14;;;;;;;43.28;6.18;;;;;;;-146.27;88.35;30934.97;5092318;28;20107;-70
2023/11/19 01:34:40;;;;;;;42.22;5.30;;;;;;;-146.27;87.89;30855.66;5095302;28;20070;-70
2023/11/19 01:37:06;;;;;;;42.92;5.55;;;;;;;-146.27;86.86;30837.81;5096957;28;20019;-71
2023/11/19 01:39:32;;;;;;;30.83;5.00;;;;;;;-146.27;87.21;30911.16;5098333;28;20078;-71
2023/11/19 01:41:57;;;;;;;48.33;5.22;;;;;;;-146.27;88.45;31061.88;5099970;28;20024;-71
2023/11/19 01:44:23;;;;;;;32.35;5.38;;;;;;;-146.27;87.36;30903.25;5107604;28;20032;-70
2023/11/19 01:46:49;;;;;;;51.80;6.47;;;;;;;-146.27;86.93;31008.34;5094351;28;20453;-70
2023/11/19 01:49:16;;;;;;;40.30;6.10;;;;;;;-146.27;87.69;31024.19;5097332;28;20118;-69
2023/11/19 01:51:42;;;;;;;40.10;6.25;;;;;;;-146.27;88.06;31101.53;5096562;28;20032;-71
2023/11/19 01:54:08;;;;;;;32.00;4.55;;;;;;;-146.27;86.78;31014.28;5090371;28;20028;-71
2023/11/19 01:56:35;;;;;;;43.03;6.28;;;;;;;-146.27;86.21;31024.19;5106031;28;20066;-72
2023/11/19 01:59:01;;;;;;;50.00;6.50;;;;;;;-146.27;86.57;31044.03;5098345;28;20047;-71
2023/11/19 02:01:27;;;;;;;45.05;5.93;;;;;;;-146.27;86.71;31022.22;5094764;28;20115;-71
2023/11/19 02:03:52;;;;;;;42.15;7.32;;;;;;;-146.27;86.46;30994.47;5103360;28;20408;-71
2023/11/19 02:06:18;;;;;;;55.50;5.95;;;;;;;-146.27;86.16;31022.22;5094594;28;20024;-71
2023/11/19 02:08:43;;;;;;;37.83;5.60;;;;;;;-146.27;86.27;31026.19;5093112;28;20032;-71
2023/11/19 02:11:09;;;;;;;45.40;5.47;;;;;;;-146.27;86.69;31095.59;5099100;28;20023;-71
2023/11/19 02:13:37;;;;;;;40.53;5.38;;;;;;;-146.27;87.01;31153.09;5105116;28;20032;-71
2023/11/19 02:16:03;;;;;;;45.15;6.63;;;;;;;-146.27;86.35;31040.06;5096202;28;20038;-71
2023/11/19 02:18:29;;;;;;;41.42;5.25;;;;;;;-146.27;86.26;31044.03;5100121;28;20028;-71
2023/11/19 02:20:56;;;;;;;42.72;6.30;;;;;;;-146.27;86.55;31145.16;5109596;27;20031;-71
2023/11/19 02:23:23;;;;;;;55.35;7.47;;;;;;;-146.27;86.79;31153.09;5104125;28;20027;-71
2023/11/19 02:26:23;;;;;;;33.17;5.70;;;;;;;-146.27;86.18;31053.94;5074726;28;20039;-71
2023/11/19 02:28:48;;;;;;;41.05;5.75;;;;;;;-146.27;85.85;31117.41;5094106;28;20069;-71
2023/11/19 02:31:14;;;;;;;54.08;5.90;;;;;;;-146.27;85.63;31049.97;5103323;28;20035;-71
2023/11/19 02:33:40;;;;;;;61.03;7.03;;;;;;;-146.27;85.40;31034.13;5103880;28;20116;-71
2023/11/19 02:36:09;;;;;;;49.63;6.22;;;;;;;-146.27;85.99;31194.75;5107356;28;20023;-71
2023/11/19 02:38:35;;;;;;;47.83;6.90;;;;;;;-146.27;85.60;31121.38;5097118;28;20040;-71
2023/11/19 02:41:05;;;;;;;31.15;5.70;;;;;;;-146.27;86.64;31252.25;5097328;28;20111;-72
2023/11/19 02:43:34;;;;;;;42.15;5.97;;;;;;;-146.27;85.83;31165.00;5102359;28;20031;-71
2023/11/19 02:46:10;;;;;;;44.97;5.72;;;;;;;-146.27;86.77;31287.94;5102252;28;20038;-71
2023/11/19 02:48:36;;;;;;;49.05;7.10;;;;;;;-146.27;85.15;31091.63;5092343;28;20024;-70
2023/11/19 02:51:09;;;;;;;41.45;4.90;;;;;;;-146.27;84.91;31089.63;5097493;28;20026;-72
2023/11/19 02:53:34;;;;;;;38.05;5.85;;;;;;;-146.27;85.22;31117.41;5102631;28;20039;-72
2023/11/19 02:56:14;;;;;;;37.25;5.30;;;;;;;-146.27;85.08;31127.31;5093577;28;20055;-72
2023/11/19 02:58:42;;;;;;;46.80;6.28;;;;;;;-146.27;84.88;31182.84;5103074;28;20089;-71
2023/11/19 03:01:22;;;;;;;43.47;7.00;;;;;;;-146.27;85.52;31248.28;5105593;28;20020;-72
2023/11/19 03:03:53;;;;;;;51.97;7.55;;;;;;;-146.27;85.63;31274.06;5103474;28;20039;-72
2023/11/19 03:06:19;;;;;;;44.33;6.13;;;;;;;-146.27;86.32;31291.91;5097024;28;20026;-71
2023/11/19 03:08:44;;;;;;;37.00;4.93;;;;;;;-146.27;86.10;31311.75;5106759;28;20107;-71
2023/11/19 03:11:09;;;;;;;44.60;6.22;;;;;;;-146.27;85.72;31287.94;5096155;28;20059;-71
2023/11/19 03:13:35;;;;;;;43.28;8.27;;;;;;;-146.27;85.55;31252.25;5097328;28;20456;-72
2023/11/19 03:16:00;;;;;;;35.20;5.40;;;;;;;-146.27;85.51;31325.63;5103110;28;20576;-71
2023/11/19 03:18:26;;;;;;;56.08;6.82;;;;;;;-146.27;85.10;31301.81;5108975;28;20751;-71
2023/11/19 03:20:52;;;;;;;45.95;6.13;;;;;;;-146.27;84.74;31214.56;5074550;28;20024;-71
2023/11/19 03:23:18;;;;;;;42.67;4.97;;;;;;;-146.27;85.19;31339.50;5095331;28;20050;-71
2023/11/19 03:25:43;;;;;;;44.08;7.60;;;;;;;-146.27;84.64;31230.44;5100688;28;20046;-71
2023/11/19 03:28:09;;;;;;;48.75;6.13;;;;;;;-146.27;83.68;31176.88;5097871;28;20535;-71
2023/11/19 03:30:34;;;;;;;32.13;5.70;;;;;;;-146.27;84.81;31282.00;5101673;28;20162;-71
2023/11/19 03:33:01;;;;;;;37.83;5.75;;;;;;;-146.27;83.97;31226.47;5092972;28;20020;-71
2023/11/19 03:35:27;;;;;;;49.55;6.90;;;;;;;-146.27;85.63;31440.66;5100284;28;20023;-71
2023/11/19 03:37:53;;;;;;;48.67;6.40;;;;;;;-146.27;85.34;31321.66;5089116;28;20023;-71
2023/11/19 03:40:19;;;;;;;53.17;7.15;;;;;;;-146.27;85.78;31418.81;5103428;28;20027;-70
2023/11/19 03:42:47;;;;;;;42.65;5.20;;;;;;;-146.27;85.61;31367.25;5099389;28;20046;-70
2023/11/19 03:45:13;;;;;;;42.53;6.63;;;;;;;-146.27;85.05;31379.16;5105483;28;20035;-71
2023/11/19 03:47:38;;;;;;;55.83;5.53;;;;;;;-146.27;84.24;31351.41;5104767;28;20027;-71
2023/11/19 03:50:04;;;;;;;45.50;6.10;;;;;;;-146.27;85.08;31375.19;5110357;28;20027;-71
2023/11/19 03:52:30;;;;;;;40.08;6.03;;;;;;;-146.27;84.49;31274.06;5098371;28;20034;-71
2023/11/19 03:54:57;;;;;;;54.05;6.68;;;;;;;-146.27;83.27;31210.59;5108102;28;20027;-70
2023/11/19 03:57:23;;;;;;;42.15;6.13;;;;;;;-146.27;83.89;31319.66;5107815;28;20030;-70
2023/11/19 03:59:48;;;;;;;46.92;7.32;;;;;;;-146.27;83.60;31349.41;5097582;28;20047;-71
2023/11/19 04:02:15;;;;;;;44.17;6.03;;;;;;;-146.27;83.53;31262.16;5108759;28;20575;-71
2023/11/19 04:04:41;;;;;;;51.50;7.10;;;;;;;-146.27;84.14;31327.59;5095758;28;20356;-71
2023/11/19 04:07:06;;;;;;;55.08;7.13;;;;;;;-146.27;84.48;31391.06;5100962;28;20027;-71
2023/11/19 04:09:37;;;;;;;42.58;7.05;;;;;;;-146.27;84.69;31448.56;5104658;28;20024;-71
2023/11/19 04:12:03;;;;;;;48.15;6.72;;;;;;;-146.27;85.15;31418.81;5093366;28;20028;-71
2023/11/19 04:14:28;;;;;;;40.40;6.55;;;;;;;-146.27;85.19;31472.38;5101688;28;20106;-71
2023/11/19 04:16:53;;;;;;;40.78;5.82;;;;;;;-146.27;85.38;31422.78;5100262;28;20407;-71
2023/11/19 04:19:19;;;;;;;59.33;8.77;;;;;;;-146.27;85.26;31462.47;5098332;28;20555;-71
2023/11/19 04:21:46;;;;;;;41.80;7.03;;;;;;;-146.27;84.38;31315.72;5095636;28;20471;-71
2023/11/19 04:24:12;;;;;;;44.38;7.60;;;;;;;-146.27;84.86;31519.97;5092945;28;20588;-70
2023/11/19 04:26:42;;;;;;;44.80;6.97;;;;;;;-146.27;83.88;31347.44;5101657;28;20081;-70
2023/11/19 04:29:12;;;;;;;40.65;5.72;;;;;;;-146.27;83.46;31317.69;5101740;28;20057;-69
2023/11/19 04:31:38;;;;;;;38.58;6.93;;;;;;;-146.27;83.23;31363.31;5091456;28;20028;-71
2023/11/19 04:34:03;;;;;;;41.63;5.90;;;;;;;-146.27;83.05;31430.72;5096290;28;20039;-69
2023/11/19 04:36:29;;;;;;;41.47;6.10;;;;;;;-146.27;82.69;31444.59;5104364;28;20031;-69
2023/11/19 04:38:55;;;;;;;44.08;6.40;;;;;;;-146.27;82.43;31383.13;5108442;28;20042;-71
2023/11/19 04:41:20;;;;;;;31.13;5.00;;;;;;;-146.27;81.45;31307.78;5097161;28;20032;-70
2023/11/19 04:43:46;;;;;;;36.17;5.82;;;;;;;-146.27;81.57;31363.31;5103339;28;20024;-70
2023/11/19 04:46:11;;;;;;;37.80;5.00;;;;;;;-146.27;81.32;31363.31;5089768;28;20019;-71
2023/11/19 04:48:37;;;;;;;35.15;3.85;;;;;;;-146.27;81.38;31452.53;5099648;28;20474;-71
2023/11/19 04:51:04;;;;;;;35.17;5.57;;;;;;;-146.27;81.30;31371.22;5089528;28;20437;-69
2023/11/19 04:53:30;;;;;;;41.53;5.82;;;;;;;-146.27;80.83;31397.00;5104882;28;20027;-69
2023/11/19 04:55:55;;;;;;;41.08;5.43;;;;;;;-146.27;79.82;31321.66;5110024;28;20491;-71
2023/11/19 04:58:21;;;;;;;43.58;5.85;;;;;;;-146.27;80.51;31414.88;5092794;28;20421;-70
2023/11/19 05:00:46;;;;;;;44.20;6.30;;;;;;;-146.27;80.51;31482.28;5099142;28;20544;-70
2023/11/19 05:03:12;;;;;;;49.00;6.68;;;;;;;-146.27;79.88;31355.38;5102642;28;20589;-69
2023/11/19 05:05:37;;;;;;;44.58;5.72;;;;;;;-146.27;80.06;31377.19;5094845;28;20668;-70
2023/11/19 05:08:03;;;;;;;41.58;6.20;;;;;;;-146.27;79.76;31339.50;5093023;28;20016;-69
2023/11/19 05:10:28;;;;;;;38.42;6.60;;;;;;;-146.27;79.58;31347.44;5093330;28;20028;-70
2023/11/19 05:12:55;;;;;;;32.60;4.97;;;;;;;-146.27;79.85;31450.56;5087402;28;20084;-71
2023/11/19 05:15:21;;;;;;;39.63;6.15;;;;;;;-146.27;80.13;31440.66;5093785;28;20032;-71
2023/11/19 05:17:46;;;;;;;37.25;4.80;;;;;;;-146.27;79.31;31335.53;5096298;28;20046;-71
2023/11/19 05:20:15;;;;;;;42.35;5.15;;;;;;;-146.27;79.82;31430.72;5075683;28;20081;-71
2023/11/19 05:22:41;;;;;;;28.40;4.93;;;;;;;-146.27;79.93;31418.81;5093261;28;20468;-71
2023/11/19 05:25:08;;;;;;;30.80;5.47;;;;;;;-146.27;79.54;31311.75;5072169;28;20074;-71
2023/11/19 05:27:34;;;;;;;46.50;6.28;;;;;;;-146.27;80.26;31434.69;5089905;28;20132;-71
2023/11/19 05:30:00;;;;;;;35.35;5.55;;;;;;;-146.27;80.33;31422.78;5106314;28;20023;-70
2023/11/19 05:32:25;;;;;;;34.97;5.93;;;;;;;-146.27;80.53;31402.97;5095390;28;20078;-71
2023/11/19 05:34:51;;;;;;;37.45;5.57;;;;;;;-146.27;80.88;31506.09;5094427;28;20053;-70
2023/11/19 05:37:16;;;;;;;36.03;4.85;;;;;;;-146.27;80.79;31474.34;5100880;28;20032;-72
2023/11/19 05:39:42;;;;;;;45.85;5.80;;;;;;;-146.27;80.66;31434.69;5094013;28;20027;-72
2023/11/19 05:42:07;;;;;;;45.83;6.18;;;;;;;-146.27;81.21;31518.00;5097825;28;20038;-71
2023/11/19 05:44:32;;;;;;;39.35;6.13;;;;;;;-146.27;80.58;31488.25;5105578;28;20020;-71
2023/11/19 05:46:58;;;;;;;36.17;5.07;;;;;;;-146.27;80.10;31410.91;5104175;28;20026;-71
2023/11/19 05:49:23;;;;;;;39.35;5.47;;;;;;;-146.27;80.17;31438.66;5110312;28;20034;-71
2023/11/19 05:51:49;;;;;;;42.65;5.55;;;;;;;-146.27;79.93;31450.56;5109975;28;20682;-71
2023/11/19 05:54:14;;;;;;;38.97;5.50;;;;;;;-146.27;80.17;31367.25;5080238;28;20497;-72
2023/11/19 05:56:40;;;;;;;38.35;5.53;;;;;;;-146.27;79.96;31434.69;5094435;28;20060;-71
2023/11/19 05:59:14;;;;;;;41.33;5.00;;;;;;;-146.27;80.96;31581.44;5105731;28;20039;-71
2023/11/19 06:01:41;;;;;;;29.17;4.85;;;;;;;-146.27;80.07;31490.22;5100193;28;20383;-70
2023/11/19 06:04:07;;;;;;;42.58;6.72;;;;;;;-146.27;79.53;31464.44;5101552;28;20039;-70
2023/11/19 06:06:32;;;;;;;44.20;5.97;;;;;;;-146.27;80.13;31547.72;5095045;28;20024;-71
2023/11/19 06:08:58;;;;;;;35.58;5.85;;;;;;;-146.27;78.68;31379.16;5103991;28;20026;-71
2023/11/19 06:11:26;;;;;;;52.25;5.15;;;;;;;-146.27;79.39;31458.50;5100170;28;20027;-71
2023/11/19 06:13:52;;;;;;;43.88;5.45;;;;;;;-146.27;79.37;31474.34;5101828;28;20036;-71
2023/11/19 06:16:18;;;;;;;30.10;4.93;;;;;;;-146.27;78.84;31438.66;5098424;28;20172;-71
2023/11/19 06:18:44;;;;;;;39.22;5.05;;;;;;;-146.27;80.14;31567.56;5092641;28;20038;-72
2023/11/19 06:21:09;;;;;;;40.55;5.88;;;;;;;-146.27;80.04;31486.25;5110888;28;20445;-72
2023/11/19 06:23:35;;;;;;;37.58;4.80;;;;;;;-146.27;79.33;31486.25;5108919;28;20071;-70
2023/11/19 06:26:00;;;;;;;35.30;5.82;;;;;;;-146.27;81.14;31609.22;5113836;28;20042;-70
2023/11/19 06:28:26;;;;;;;37.47;4.53;;;;;;;-146.27;80.43;31555.66;5093064;28;20024;-70
2023/11/19 06:30:51;;;;;;;48.15;6.05;;;;;;;-146.27;80.28;31531.88;5093101;28;20110;-70
2023/11/19 06:33:16;;;;;;;52.35;6.63;;;;;;;-146.27;80.58;31506.09;5099513;28;20471;-71
2023/11/19 06:35:42;;;;;;;43.50;7.18;;;;;;;-146.27;80.05;31416.84;5100523;28;20027;-71
2023/11/19 06:38:07;;;;;;;40.03;5.72;;;;;;;-146.27;80.89;31480.31;5104106;28;20032;-71
2023/11/19 06:40:34;;;;;;;49.75;5.75;;;;;;;-146.27;80.87;31545.75;5112570;28;20164;-71
2023/11/19 06:43:00;;;;;;;40.78;5.97;;;;;;;-146.27;80.26;31420.81;5112906;28;20453;-72
2023/11/19 06:45:26;;;;;;;30.33;4.40;;;;;;;-146.27;80.42;31490.22;5099694;28;20141;-71
2023/11/19 06:47:51;;;;;;;51.28;5.45;;;;;;;-146.27;80.67;31478.31;5111147;28;20464;-72
2023/11/19 06:50:16;;;;;;;32.70;5.65;;;;;;;-146.27;81.20;31545.75;5101572;28;20395;-71
2023/11/19 06:52:42;;;;;;;41.40;5.63;;;;;;;-146.27;81.02;31521.94;5101968;28;22857;-71
2023/11/19 06:55:08;;;;;;;48.10;6.60;;;;;;;-146.27;80.92;31476.34;5112140;28;20030;-71
2023/11/19 06:57:33;;;;;;;34.92;4.88;;;;;;;-146.27;80.65;31462.47;5097365;28;20034;-71
2023/11/19 06:59:59;;;;;;;45.30;5.70;;;;;;;-146.27;80.60;31502.13;5098137;28;20024;-71
2023/11/19 07:02:24;;;;;;;45.75;5.00;;;;;;;-146.27;80.29;31452.53;5093227;28;20555;-71
2023/11/19 07:04:51;;;;;;;30.70;4.47;;;;;;;-146.27;79.90;31333.56;5092539;28;20028;-70
2023/11/19 07:07:16;;;;;;;24.33;3.90;;;;;;;-146.27;80.51;31518.00;5096461;28;20115;-71
2023/11/19 07:09:41;;;;;;;33.05;5.05;;;;;;;-146.27;80.16;31416.84;5112363;28;20106;-70
2023/11/19 07:12:07;;;;;;;36.65;4.60;;;;;;;-146.27;80.34;31510.06;5103701;28;20086;-70
2023/11/19 07:14:32;;;;;;;43.00;5.53;;;;;;;-146.27;80.52;31440.66;5095999;28;20057;-70
2023/11/19 07:16:57;;;;;;;32.45;4.60;;;;;;;-146.27;79.47;31373.22;5108692;28;20040;-70
2023/11/19 07:19:23;;;;;;;40.38;5.15;;;;;;;-146.27;80.82;31482.28;5094744;28;20036;-70
2023/11/19 07:21:49;;;;;;;31.30;4.78;;;;;;;-146.27;80.43;31412.88;5104798;28;20023;-70
2023/11/19 07:24:14;;;;;;;45.30;6.70;;;;;;;-146.27;79.28;31228.44;5100700;28;20032;-71
2023/11/19 07:26:44;;;;;;;39.10;4.88;;;;;;;-146.27;79.22;31274.06;5108335;28;20023;-71
2023/11/19 07:29:09;;;;;;;33.03;5.60;;;;;;;-146.27;80.13;31363.31;5092191;28;20121;-71
2023/11/19 07:31:35;;;;;;;47.08;5.97;;;;;;;-146.27;79.86;31333.56;5106156;28;20455;-72
2023/11/19 07:34:00;;;;;;;41.00;5.60;;;;;;;-146.27;79.82;31283.97;5103052;28;20012;-73
2023/11/19 07:36:26;;;;;;;40.28;5.40;;;;;;;-146.27;80.18;31347.44;5094057;28;20028;-72
2023/11/19 07:38:51;;;;;;;37.67;5.35;;;;;;;-146.27;80.66;31418.81;5090824;28;20032;-70
2023/11/19 07:41:16;;;;;;;35.50;5.25;;;;;;;-146.27;80.68;31371.22;5100517;28;20028;-72
2023/11/19 07:43:46;;;;;;;35.65;5.20;;;;;;;-146.27;80.81;31521.94;5095855;28;20031;-72
2023/11/19 07:46:13;;;;;;;36.30;5.00;;;;;;;-146.27;80.15;31375.19;5090269;28;20028;-71
2023/11/19 07:48:42;;;;;;;40.50;5.85;;;;;;;-146.27;80.12;31395.03;5101206;28;20054;-71
2023/11/19 07:51:08;;;;;;;32.75;4.93;;;;;;;-146.27;79.45;31319.66;5098019;28;20032;-70
2023/11/19 07:53:33;;;;;;;49.25;6.50;;;;;;;-146.27;79.41;31400.97;5098162;28;20085;-72
2023/11/19 07:56:02;;;;;;;38.60;5.18;;;;;;;-146.27;79.78;31399.00;5096215;28;20024;-81
2023/11/19 07:58:28;;;;;;;36.75;4.78;;;;;;;-146.27;79.23;31351.41;5097375;28;20028;-72
2023/11/19 08:00:53;;;;;;;30.60;5.47;;;;;;;-146.27;79.14;31355.38;5101033;28;20032;-72
2023/11/19 08:03:18;;;;;;;47.30;5.82;;;;;;;-146.27;78.82;31329.59;5095796;28;20519;-71
2023/11/19 08:05:46;;;;;;;41.45;5.57;;;;;;;-146.27;78.63;31339.50;5092410;28;20442;-71
2023/11/19 08:08:11;;;;;;;39.10;4.88;;;;;;;-146.27;77.86;31305.78;5075539;28;20058;-71
2023/11/19 08:10:37;;;;;;;43.08;6.22;;;;;;;-146.27;78.11;31377.19;5097909;28;20690;-71
2023/11/19 08:13:02;;;;;;;35.45;4.85;;;;;;;-146.27;77.39;31248.28;5097968;28;20052;-71
2023/11/19 08:15:27;;;;;;;32.22;4.38;;;;;;;-146.27;77.23;31295.88;5076038;28;20058;-71
2023/11/19 08:17:53;;;;;;;34.60;4.60;;;;;;;-146.27;77.09;31248.28;5090151;28;20581;-72
2023/11/19 08:20:18;;;;;;;40.53;4.57;;;;;;;-146.27;77.52;31305.78;5092953;28;20128;-71
2023/11/19 08:22:44;;;;;;;40.90;6.25;;;;;;;-146.27;77.79;31291.91;5095684;28;21930;-71
2023/11/19 08:25:09;;;;;;;38.55;5.80;;;;;;;-146.27;78.65;31327.59;5093536;28;20387;-70
2023/11/19 08:27:34;;;;;;;39.15;6.13;;;;;;;-146.27;78.52;31337.53;5092073;28;20387;-69
2023/11/19 08:30:00;;;;;;;39.05;6.10;;;;;;;-146.27;77.68;31234.41;5098124;28;20038;-70
2023/11/19 08:32:27;;;;;;;39.63;4.90;;;;;;;-146.27;77.46;31248.28;5095036;28;20172;-70
2023/11/19 08:34:54;;;;;;;37.42;5.65;;;;;;;-146.27;77.74;31293.88;5106644;28;20073;-70
2023/11/19 08:37:21;;;;;;;36.28;5.65;;;;;;;-146.27;77.37;31212.59;5091389;28;20076;-70
2023/11/19 08:39:50;;;;;;;35.13;5.53;;;;;;;-146.27;77.92;31220.53;5096219;28;20026;-70
2023/11/19 08:42:16;;;;;;;35.00;5.68;;;;;;;-146.27;76.63;31079.72;5090724;28;20066;-69
2023/11/19 08:44:43;;;;;;;33.72;5.00;;;;;;;-146.27;77.06;31172.94;5099879;28;20488;-71
2023/11/19 08:47:11;;;;;;;33.92;6.05;;;;;;;-146.27;76.70;31145.16;5098375;28;20102;-71
2023/11/19 08:49:37;;;;;;;37.45;5.53;;;;;;;-146.27;76.14;31121.38;5099182;28;20051;-71
2023/11/19 08:52:02;;;;;;;35.50;4.45;;;;;;;-146.27;76.33;31149.13;5095524;28;20062;-70
2023/11/19 08:54:28;;;;;;;43.63;5.97;;;;;;;-146.27;76.18;31139.22;5094455;28;20895;-70
2023/11/19 08:56:53;;;;;;;40.22;5.07;;;;;;;-146.27;75.79;30990.50;5093161;28;20050;-72
2023/11/19 08:59:19;;;;;;;41.55;5.25;;;;;;;-146.27;76.08;31097.56;5094218;28;20558;-72
2023/11/19 09:01:44;;;;;;;32.13;4.85;;;;;;;-146.27;76.17;31053.94;5093340;28;20035;-72
2023/11/19 09:04:10;;;;;;;42.30;5.30;;;;;;;-146.27;77.07;31244.31;5096122;28;20036;-70
2023/11/19 09:06:36;;;;;;;39.97;5.15;;;;;;;-146.27;75.73;30990.50;5090691;28;20047;-70
2023/11/19 09:09:02;;;;;;;42.58;5.40;;;;;;;-146.27;76.07;30996.44;5095254;28;20023;-70
2023/11/19 09:11:29;;;;;;;38.33;5.22;;;;;;;-146.27;76.19;30938.94;5094330;28;20027;-71
2023/11/19 09:13:54;;;;;;;35.25;4.65;;;;;;;-146.27;76.41;31081.72;5078550;28;20062;-72
2023/11/19 09:16:20;;;;;;;49.03;4.85;;;;;;;-146.27;75.89;31042.03;5073298;28;20048;-71
2023/11/19 09:18:46;;;;;;;36.55;5.32;;;;;;;-146.27;74.86;30931.00;5076825;28;20668;-70
2023/11/19 09:21:12;;;;;;;37.28;5.13;;;;;;;-146.27;75.75;31099.56;5074605;28;20037;-72
2023/11/19 09:23:39;;;;;;;37.63;7.13;;;;;;;-146.27;75.34;31061.88;5071351;28;20033;-71
2023/11/19 09:26:16;;;;;;;42.10;5.75;;;;;;;-146.27;75.32;31123.34;5073388;28;20437;-71
2023/11/19 09:28:41;;;;;;;39.53;5.13;;;;;;;-146.27;74.86;30946.88;5073724;28;20032;-71
2023/11/19 09:31:17;;;;;;;40.33;5.32;;;;;;;-146.27;75.19;31002.38;5071451;28;20029;-70
2023/11/19 09:33:43;;;;;;;27.25;4.72;;;;;;;-146.27;75.43;31034.13;5084043;28;20024;-68
2023/11/19 09:36:10;;;;;;;39.83;5.53;;;;;;;-146.27;75.13;31137.22;5088311;28;20089;-70
2023/11/19 09:38:38;;;;;;;32.92;4.80;;;;;;;-146.27;74.38;30891.34;5078829;28;20090;-69
2023/11/19 09:41:08;;;;;;;40.25;6.30;;;;;;;-146.27;74.10;30816.00;5073568;28;20020;-71
2023/11/19 09:43:33;;;;;;;34.72;4.88;;;;;;;-146.27;73.08;30671.25;5089061;28;20530;-72
2023/11/19 09:46:06;;;;;;;31.15;4.82;;;;;;;-146.27;72.90;30649.44;5086358;28;20028;-70
2023/11/19 09:48:33;;;;;;;39.35;4.85;;;;;;;-146.27;72.83;30651.41;5070809;28;20027;-72
2023/11/19 09:50:59;;;;;;;38.20;4.90;;;;;;;-146.27;74.36;30724.78;5086101;28;20028;-70
2023/11/19 09:53:24;;;;;;;37.22;5.15;;;;;;;-146.27;73.74;30843.75;5087570;28;20034;-68
2023/11/19 09:55:51;;;;;;;38.22;4.45;;;;;;;-146.27;72.69;30673.22;5073783;28;20112;-71
2023/11/19 09:58:17;;;;;;;25.83;6.03;;;;;;;-146.27;72.22;30661.34;5071243;28;20068;-71
2023/11/19 10:00:42;;;;;;;26.67;5.05;;;;;;;-146.27;72.49;30726.78;5085900;28;20372;-72
2023/11/19 10:03:12;;;;;;;34.80;4.38;;;;;;;-146.27;71.88;30887.38;5078241;28;20113;-71
2023/11/19 10:05:38;;;;;;;39.25;4.82;;;;;;;-146.27;71.18;30633.56;5083497;28;20476;-70
2023/11/19 10:08:05;;;;;;;35.83;4.25;;;;;;;-146.27;71.15;30782.28;5079875;28;20073;-68
2023/11/19 10:10:30;;;;;;;34.45;4.78;;;;;;;-146.27;70.41;30657.38;5074035;28;20522;-69
2023/11/19 10:12:56;;;;;;;29.83;4.13;;;;;;;-146.27;69.98;30693.06;5076596;28;20023;-69
2023/11/19 10:15:24;;;;;;;33.10;4.78;;;;;;;-146.27;68.55;30455.13;5070842;28;20036;-71
2023/11/19 10:17:50;;;;;;;24.50;3.92;;;;;;;-146.27;67.92;30425.41;5091226;28;20048;-69
2023/11/19 10:20:18;;;;;;;29.45;4.13;;;;;;;-146.27;67.08;30270.75;5100660;28;20031;-69
2023/11/19 10:22:44;;;;;;;25.35;3.97;;;;;;;-146.27;66.03;30262.81;5113691;28;20387;-70
2023/11/19 10:25:36;;;;;;;32.95;4.82;;;;;;;-146.27;65.42;30193.44;5113333;28;20019;-69
2023/11/19 10:28:03;;;;;;;28.83;4.47;;;;;;;-146.27;64.85;30126.03;5110092;28;20058;-69
2023/11/19 10:30:30;;;;;;;38.20;4.38;;;;;;;-146.27;63.46;29909.94;5091865;27;20027;-69
2023/11/19 10:33:20;;;;;;;34.35;4.55;;;;;;;-146.27;63.66;30155.75;5083236;27;20027;-69
2023/11/19 10:35:57;;;;;;;36.15;5.32;;;;;;;-146.27;63.21;29959.50;5078177;28;20032;-69
2023/11/19 10:38:24;;;;;;;31.15;5.65;;;;;;;-146.27;61.73;29822.72;5078519;28;20043;-70
2023/11/19 10:40:56;;;;;;;23.83;5.18;;;;;;;-146.27;61.29;29469.88;5072204;28;20514;-71
2023/11/19 10:43:23;;;;;;;28.90;4.78;;;;;;;-146.27;59.73;29436.16;5103611;28;20641;-70
2023/11/19 10:45:49;;;;;;;26.35;4.97;;;;;;;-146.27;58.48;29356.88;5104574;28;20030;-70
2023/11/19 10:48:14;;;;;;;26.30;4.40;;;;;;;-146.27;59.89;29678.00;5092852;28;20027;-69
2023/11/19 10:50:45;;;;;;;32.15;4.35;;;;;;;-146.27;60.37;29537.25;5101606;28;20024;-70
2023/11/19 10:53:15;;;;;;;20.75;4.55;;;;;;;-146.27;60.54;29529.34;5100004;27;20039;-69
2023/11/19 10:55:41;;;;;;;32.25;4.18;;;;;;;-146.27;59.84;29547.19;5102302;28;20028;-68
2023/11/19 10:58:09;;;;;;;31.92;4.47;;;;;;;-146.27;58.46;29412.38;5100989;28;20024;-68
2023/11/19 11:00:39;;;;;;;31.42;4.85;;;;;;;-146.27;58.91;29670.06;5097096;27;20099;-68
2023/11/19 11:03:39;;;;;;;23.83;3.95;;;;;;;-146.27;57.06;29598.72;5104411;28;20031;-69
2023/11/19 11:06:05;;;;;;;23.38;4.25;;;;;;;-146.27;58.84;29820.72;5097163;28;20498;-69
2023/11/19 11:08:31;;;;;;;24.98;4.05;;;;;;;-146.27;59.61;29614.56;5099858;28;20027;-69